GCC Virtual Airport Information Service

Beijing Capital International Airport

ICAO: ZBAA Country: CN
Latitude: 40.0801 Longitude: 116.585
Latest Arrival : GCT1021 (FACT-ZBAA) Latest Departure : GCT1021 (ZBAA-NZAA)


WX CaptureLIVE
Data provided by noaa.gov | Fetched at 12:32:54

METAR : ZBAA 051200Z 17004MPS 130V190 CAVOK 03/M07 Q1032 NOSIG

TAF : ZBAA 050901Z 0512/0612 18004MPS 3500 BR NSC TX04/0607Z TNM03/0521Z


Runway Data for ZBAA
Data provided by openaviationdata.com

Runway ID Mag Var Hdg Length Elevation Surface ILS Freq ILS Id ILS Slope
18L -6 179° 12478 ft 115 ft Asphalt 109.3 IOR 3
18R -6 179° 10507 ft 115 ft Asphalt 110.3 ILG 3
36L -6 359° 10507 ft 115 ft Asphalt 111.7 IDK 3
36R -6 359° 12478 ft 115 ft Asphalt 109.9 IQU 3

Beijing Capital International Airport, CN
Use only for reference purposes



Not for navigational purposes.